Time;durP1;ratioP1;P1;durP2;ratioP2;P2;SDS_P1;SDS_P2;PMS_P1;PMS_P2;Temp;Humidity;BMP_temperature;BMP_pressure;BME280_temperature;BME280_humidity;BME280_pressure;Samples;Min_cycle;Max_cycle;Signal;HPM_P1;HPM_P2
2022/01/22 00:00:36;;;;;;;13.45;9.25;;;0.80;99.90;;;;;;4996567;28;20486;-83
2022/01/22 00:03:02;;;;;;;18.25;10.73;;;0.80;99.90;;;;;;4998959;28;20078;-84
2022/01/22 00:05:28;;;;;;;11.02;9.60;;;0.70;99.90;;;;;;4999219;28;20030;-83
2022/01/22 00:07:54;;;;;;;14.65;9.70;;;0.60;99.90;;;;;;4997743;28;20023;-83
2022/01/22 00:10:23;;;;;;;15.10;11.13;;;0.60;99.90;;;;;;4997722;28;20030;-85
2022/01/22 00:15:20;;;;;;;18.27;12.02;;;0.50;99.90;;;;;;4999178;28;20078;-82
2022/01/22 00:17:48;;;;;;;18.38;10.85;;;0.40;99.90;;;;;;4999316;28;20034;-83
2022/01/22 00:20:15;;;;;;;19.58;12.52;;;0.40;99.90;;;;;;5004020;28;20026;-83
2022/01/22 00:22:42;;;;;;;15.45;11.07;;;0.40;99.90;;;;;;4985810;28;20142;-84
2022/01/22 00:25:11;;;;;;;22.80;13.40;;;0.40;99.90;;;;;;4998756;28;20054;-83
2022/01/22 00:27:40;;;;;;;14.85;10.23;;;0.30;99.90;;;;;;4999396;28;20402;-82
2022/01/22 00:30:08;;;;;;;14.13;11.45;;;0.30;99.90;;;;;;4993253;28;20456;-83
2022/01/22 00:32:35;;;;;;;15.45;10.68;;;0.30;99.90;;;;;;4995995;28;20026;-83
2022/01/22 00:35:01;;;;;;;14.45;10.27;;;0.30;99.90;;;;;;5001087;28;20014;-82
2022/01/22 00:37:26;;;;;;;16.13;11.07;;;0.30;99.90;;;;;;4998848;28;20026;-83
2022/01/22 00:39:52;;;;;;;14.10;12.07;;;0.20;99.90;;;;;;4998577;28;20019;-83
2022/01/22 00:42:20;;;;;;;17.05;11.27;;;0.20;99.90;;;;;;4996808;28;20025;-83
2022/01/22 00:44:49;;;;;;;18.48;12.10;;;0.20;99.90;;;;;;4998457;28;20022;-83
2022/01/22 00:47:15;;;;;;;19.42;11.50;;;0.20;99.90;;;;;;4998487;28;20478;-83
2022/01/22 00:49:41;;;;;;;14.90;10.82;;;0.20;99.90;;;;;;4998311;28;20068;-82
2022/01/22 00:52:07;;;;;;;17.73;11.20;;;0.20;99.90;;;;;;4998588;28;20132;-84
2022/01/22 00:54:34;;;;;;;14.35;10.55;;;0.20;99.90;;;;;;4998290;28;20028;-82
2022/01/22 00:57:00;;;;;;;15.65;10.98;;;0.20;99.90;;;;;;4998063;28;20030;-82
2022/01/22 00:59:25;;;;;;;22.98;11.65;;;0.20;99.90;;;;;;4998278;28;20061;-82
2022/01/22 01:01:51;;;;;;;15.88;10.98;;;0.20;99.90;;;;;;4997049;28;20482;-82
2022/01/22 01:04:17;;;;;;;15.98;10.82;;;0.20;99.90;;;;;;4998224;28;20045;-81
2022/01/22 01:06:43;;;;;;;14.63;10.00;;;0.20;99.90;;;;;;5000532;28;20405;-82
2022/01/22 01:09:11;;;;;;;21.23;10.45;;;0.20;99.90;;;;;;5001637;28;20498;-83
2022/01/22 01:11:51;;;;;;;13.63;10.27;;;0.20;99.90;;;;;;4997959;28;20026;-82
2022/01/22 01:14:28;;;;;;;19.33;11.57;;;0.20;99.90;;;;;;4984079;28;20023;-82
2022/01/22 01:33:19;;;;;;;16.02;10.98;;;0.10;99.90;;;;;;4997868;28;20034;-82
2022/01/22 01:35:45;;;;;;;22.10;13.00;;;0.10;99.90;;;;;;4983290;28;20517;-82
2022/01/22 01:38:11;;;;;;;16.73;10.45;;;0.00;99.90;;;;;;5000035;28;20556;-82
2022/01/22 01:40:41;;;;;;;16.08;10.82;;;0.00;99.90;;;;;;5001976;28;20481;-82
2022/01/22 01:43:19;;;;;;;15.30;10.93;;;0.00;99.90;;;;;;5002292;28;20101;-82
2022/01/22 01:45:45;;;;;;;11.77;10.48;;;0.00;99.90;;;;;;5000682;28;20057;-81
2022/01/22 01:48:17;;;;;;;13.25;10.40;;;0.00;99.90;;;;;;4984559;28;20034;-81
2022/01/22 01:50:44;;;;;;;16.42;10.40;;;-0.10;99.90;;;;;;4984844;28;20108;-82
2022/01/22 01:53:19;;;;;;;16.52;11.30;;;-0.10;99.90;;;;;;4984085;28;20064;-82
2022/01/22 01:58:29;;;;;;;21.27;11.45;;;-0.10;99.90;;;;;;5000095;28;20367;-81
2022/01/22 02:00:56;;;;;;;16.75;10.75;;;-0.10;99.90;;;;;;4996133;28;20030;-82
2022/01/22 02:03:23;;;;;;;11.27;9.05;;;-0.10;99.90;;;;;;4984068;28;20030;-82
2022/01/22 02:05:50;;;;;;;15.88;9.88;;;-0.10;99.90;;;;;;4983606;28;20061;-82
2022/01/22 02:08:18;;;;;;;16.98;10.75;;;-0.10;99.90;;;;;;5001441;28;20015;-81
2022/01/22 02:10:54;;;;;;;17.17;11.43;;;-0.10;99.90;;;;;;5001119;28;20018;-82
2022/01/22 02:24:34;;;;;;;14.20;11.68;;;-0.20;99.90;;;;;;5000935;28;20129;-81
2022/01/22 02:27:00;;;;;;;15.93;10.93;;;-0.20;99.90;;;;;;4999006;28;20069;-82
2022/01/22 02:29:25;;;;;;;19.98;13.38;;;-0.30;99.90;;;;;;5000936;28;20030;-81
2022/01/22 02:32:19;;;;;;;15.02;11.60;;;-0.30;99.90;;;;;;4983284;28;20027;-81
2022/01/22 02:34:51;;;;;;;23.42;10.57;;;-0.30;99.90;;;;;;5001143;28;20081;-81
2022/01/22 02:37:19;;;;;;;13.60;12.05;;;-0.40;99.90;;;;;;5000578;28;20018;-81
2022/01/22 02:39:58;;;;;;;16.67;11.27;;;-0.40;99.90;;;;;;5000751;28;20497;-83
2022/01/22 02:42:31;;;;;;;14.93;11.02;;;-0.50;99.90;;;;;;5000584;28;20068;-82
2022/01/22 02:44:57;;;;;;;15.70;10.88;;;-0.50;99.90;;;;;;4982846;28;20089;-82
2022/01/22 02:47:23;;;;;;;17.08;10.82;;;-0.50;99.90;;;;;;5000862;28;20026;-82
2022/01/22 02:49:50;;;;;;;17.73;11.18;;;-0.50;99.90;;;;;;4999747;28;20033;-82
2022/01/22 02:52:17;;;;;;;20.20;11.23;;;-0.50;99.90;;;;;;4982893;28;20027;-82
2022/01/22 02:54:45;;;;;;;14.63;11.70;;;-0.50;99.90;;;;;;5000194;28;20026;-82
2022/01/22 02:57:12;;;;;;;15.95;11.18;;;-0.50;99.90;;;;;;4998937;28;20026;-80
2022/01/22 02:59:39;;;;;;;20.55;11.52;;;-0.50;99.90;;;;;;5013981;28;20032;-81
2022/01/22 03:02:06;;;;;;;17.02;11.80;;;-0.50;99.90;;;;;;5000290;28;20066;-81
2022/01/22 03:04:32;;;;;;;16.52;11.57;;;-0.50;99.90;;;;;;5000254;28;20034;-81
2022/01/22 03:06:58;;;;;;;16.13;11.90;;;-0.50;99.90;;;;;;4983008;28;20026;-81
2022/01/22 03:09:30;;;;;;;15.75;11.60;;;-0.60;99.90;;;;;;4983414;28;20437;-81
2022/01/22 03:15:17;;;;;;;14.40;11.20;;;-0.50;99.90;;;;;;5000124;28;20030;-81
2022/01/22 03:20:21;;;;;;;16.35;12.32;;;-0.60;99.90;;;;;;5003624;28;20548;-82
2022/01/22 03:27:58;;;;;;;18.75;11.75;;;-0.60;99.90;;;;;;4999606;28;20072;-82
2022/01/22 03:30:25;;;;;;;12.55;11.10;;;-0.60;99.90;;;;;;4982482;28;20038;-82
2022/01/22 03:32:53;;;;;;;21.58;11.82;;;-0.60;99.90;;;;;;4999850;28;20026;-81
2022/01/22 03:37:52;;;;;;;16.63;11.60;;;-0.60;99.90;;;;;;4999831;28;20028;-82
2022/01/22 03:40:22;;;;;;;20.77;12.77;;;-0.70;99.90;;;;;;4998598;28;20034;-81
2022/01/22 03:42:49;;;;;;;16.88;12.05;;;-0.70;99.90;;;;;;4999419;28;20015;-82
2022/01/22 03:45:15;;;;;;;16.63;13.75;;;-0.70;99.90;;;;;;4999831;28;20037;-82
2022/01/22 03:47:41;;;;;;;23.85;13.88;;;-0.70;99.90;;;;;;4999661;28;20035;-83
2022/01/22 03:50:09;;;;;;;21.08;13.70;;;-0.70;99.90;;;;;;4999937;28;20022;-83
2022/01/22 03:52:35;;;;;;;19.27;13.82;;;-0.70;99.90;;;;;;4985838;28;20026;-82
2022/01/22 03:55:02;;;;;;;25.20;14.32;;;-0.60;99.90;;;;;;5003014;28;20033;-82
2022/01/22 03:57:28;;;;;;;14.13;12.68;;;-0.70;99.90;;;;;;4985481;28;20150;-82
2022/01/22 03:59:55;;;;;;;16.73;12.57;;;-0.70;99.90;;;;;;4984741;28;20038;-82
2022/01/22 04:05:02;;;;;;;20.15;12.63;;;-0.70;99.90;;;;;;5003340;28;20042;-81
2022/01/22 04:10:14;;;;;;;13.38;11.20;;;-0.80;99.90;;;;;;5002411;28;20091;-82
2022/01/22 04:12:55;;;;;;;17.02;12.15;;;-0.80;99.90;;;;;;4984636;28;20372;-82
2022/01/22 04:15:26;;;;;;;17.90;12.15;;;-0.80;99.90;;;;;;5001674;28;20049;-81
2022/01/22 04:26:20;;;;;;;16.80;13.75;;;-0.90;99.90;;;;;;4999240;28;20391;-81
2022/01/22 04:28:46;;;;;;;22.88;12.52;;;-1.00;99.90;;;;;;4981682;28;20053;-81
2022/01/22 04:31:12;;;;;;;20.25;12.45;;;-1.00;99.90;;;;;;4981498;28;20409;-81
2022/01/22 04:33:38;;;;;;;18.17;12.60;;;-1.10;99.90;;;;;;4998671;28;20026;-82
2022/01/22 04:36:04;;;;;;;15.15;12.75;;;-1.20;99.90;;;;;;4983695;28;20091;-82
2022/01/22 04:38:30;;;;;;;18.58;13.10;;;-1.30;99.90;;;;;;4981559;28;20025;-82
2022/01/22 04:40:58;;;;;;;16.08;13.35;;;-1.40;99.90;;;;;;4981256;28;20023;-83
2022/01/22 04:43:24;;;;;;;18.02;13.73;;;-1.50;99.90;;;;;;4981441;28;20367;-83
2022/01/22 04:46:10;;;;;;;22.17;14.32;;;-1.60;99.90;;;;;;4999529;28;20057;-82
2022/01/22 04:48:49;;;;;;;16.88;13.35;;;-1.70;99.90;;;;;;5007577;28;20027;-81
2022/01/22 04:56:44;;;;;;;22.27;13.32;;;-1.70;99.90;;;;;;4998554;28;20037;-82
2022/01/22 04:59:11;;;;;;;15.88;12.20;;;-1.80;99.90;;;;;;4998517;28;20015;-82
2022/01/22 05:01:36;;;;;;;13.43;11.68;;;-1.80;99.90;;;;;;4980830;28;20112;-82
2022/01/22 05:04:02;;;;;;;27.23;12.98;;;-1.90;99.90;;;;;;4980891;28;20113;-82
2022/01/22 05:06:29;;;;;;;15.38;13.32;;;-1.90;99.90;;;;;;4998096;28;20497;-82
2022/01/22 05:08:56;;;;;;;18.15;13.77;;;-1.90;99.90;;;;;;4998186;28;20026;-82
2022/01/22 05:11:24;;;;;;;25.73;16.90;;;-1.90;99.90;;;;;;4997457;28;20030;-82
2022/01/22 05:13:51;;;;;;;18.05;13.73;;;-1.90;99.90;;;;;;4998125;28;20558;-82
2022/01/22 05:16:17;;;;;;;17.73;14.93;;;-2.00;99.90;;;;;;5000397;28;20033;-83
2022/01/22 05:18:58;;;;;;;21.63;14.15;;;-2.00;99.90;;;;;;4996185;28;20024;-83
2022/01/22 05:21:26;;;;;;;19.95;13.95;;;-1.80;99.90;;;;;;5004381;28;20114;-84
2022/01/22 05:23:53;;;;;;;18.98;13.80;;;-1.60;99.90;;;;;;4980894;28;20027;-84
2022/01/22 05:29:55;;;;;;;17.92;12.60;;;-1.40;99.90;;;;;;4978693;28;20098;-84
2022/01/22 05:32:33;;;;;;;18.00;13.45;;;-1.20;99.90;;;;;;4978261;28;20119;-84
2022/01/22 05:37:46;;;;;;;22.25;13.38;;;-1.20;99.90;;;;;;4978418;28;20033;-83
2022/01/22 05:40:12;;;;;;;26.25;12.82;;;-1.10;99.90;;;;;;4960850;28;20402;-85
2022/01/22 05:42:38;;;;;;;16.10;12.30;;;-1.00;99.90;;;;;;4960867;28;20061;-83
2022/01/22 05:45:05;;;;;;;16.27;12.80;;;-1.00;99.90;;;;;;4993739;28;20056;-84
2022/01/22 05:47:31;;;;;;;21.48;13.70;;;-1.00;99.90;;;;;;4961056;28;20058;-84
2022/01/22 05:49:58;;;;;;;16.20;12.65;;;-1.00;99.90;;;;;;4961215;28;20031;-83
2022/01/22 05:52:33;;;;;;;15.93;11.45;;;-1.00;99.90;;;;;;4960964;28;20031;-83
2022/01/22 06:00:16;;;;;;;16.20;11.75;;;-1.20;99.90;;;;;;4978393;28;20065;-83
2022/01/22 06:02:44;;;;;;;14.43;12.15;;;-1.20;99.90;;;;;;4977997;28;20501;-82
2022/01/22 06:05:10;;;;;;;15.63;12.40;;;-1.20;99.90;;;;;;4960793;28;20027;-83
2022/01/22 06:07:45;;;;;;;15.82;12.82;;;-1.30;99.90;;;;;;4960851;28;20030;-82
2022/01/22 06:10:17;;;;;;;18.80;13.73;;;-1.30;99.90;;;;;;4960638;28;20426;-83
2022/01/22 06:15:18;;;;;;;19.38;14.98;;;-1.40;99.90;;;;;;4978196;28;20086;-82
2022/01/22 06:17:43;;;;;;;22.75;14.38;;;-1.50;99.90;;;;;;4977994;28;20106;-83
2022/01/22 06:20:15;;;;;;;15.80;12.88;;;-1.50;99.90;;;;;;4979775;28;20046;-82
2022/01/22 06:22:41;;;;;;;16.45;13.63;;;-1.60;99.90;;;;;;4960416;28;20038;-82
2022/01/22 06:25:08;;;;;;;17.20;13.52;;;-1.60;99.90;;;;;;4980881;28;20039;-82
2022/01/22 06:27:34;;;;;;;24.63;14.23;;;-1.70;99.90;;;;;;4990276;28;20077;-82
2022/01/22 06:30:00;;;;;;;20.48;14.60;;;-1.70;99.90;;;;;;5001070;28;20058;-83
2022/01/22 06:32:26;;;;;;;22.17;15.23;;;-1.80;99.90;;;;;;4983298;28;20042;-82
2022/01/22 06:34:52;;;;;;;22.20;15.13;;;-1.80;99.90;;;;;;4985871;28;20038;-82
2022/01/22 06:37:18;;;;;;;23.08;15.77;;;-1.80;99.90;;;;;;5016178;28;20045;-83
2022/01/22 06:42:32;;;;;;;19.63;14.50;;;-1.90;99.90;;;;;;5000461;28;20033;-83
2022/01/22 06:44:59;;;;;;;22.80;16.67;;;-1.90;99.90;;;;;;4983069;28;20450;-82
2022/01/22 06:47:26;;;;;;;21.27;15.27;;;-1.90;99.90;;;;;;5000701;28;20030;-82
2022/01/22 06:49:52;;;;;;;23.08;15.05;;;-2.00;99.90;;;;;;5000525;28;20031;-83
2022/01/22 06:52:19;;;;;;;30.35;19.33;;;-2.00;99.90;;;;;;4983287;28;20023;-83
2022/01/22 06:54:45;;;;;;;43.45;25.98;;;-2.00;99.90;;;;;;4983572;28;20030;-83
2022/01/22 06:57:12;;;;;;;31.48;21.95;;;-2.00;99.90;;;;;;4983449;28;20030;-82
2022/01/22 07:03:03;;;;;;;28.67;19.60;;;-2.00;99.90;;;;;;5000403;28;20025;-82
2022/01/22 07:05:29;;;;;;;30.67;18.05;;;-2.00;99.90;;;;;;5000228;28;20030;-83
2022/01/22 07:07:55;;;;;;;26.50;17.20;;;-2.00;99.90;;;;;;5001997;28;20057;-82
2022/01/22 07:10:21;;;;;;;25.70;16.30;;;-2.00;99.90;;;;;;5003587;28;20034;-83
2022/01/22 07:16:10;;;;;;;21.80;13.90;;;-2.00;99.90;;;;;;5000166;28;20048;-82
2022/01/22 07:18:35;;;;;;;21.73;15.27;;;-2.00;99.90;;;;;;4999977;28;20052;-82
2022/01/22 07:21:09;;;;;;;20.50;16.05;;;-2.00;99.90;;;;;;4991007;28;20057;-82
2022/01/22 07:26:03;;;;;;;22.02;17.58;;;-2.00;99.90;;;;;;4999590;28;20030;-82
2022/01/22 07:28:28;;;;;;;29.25;16.70;;;-2.00;99.90;;;;;;5002957;28;20050;-82
2022/01/22 07:30:55;;;;;;;21.63;15.55;;;-2.00;99.90;;;;;;4999428;28;20026;-82
2022/01/22 07:33:20;;;;;;;27.42;17.20;;;-2.00;99.90;;;;;;4999639;28;20026;-82
2022/01/22 07:35:47;;;;;;;32.25;16.45;;;-2.00;99.90;;;;;;4984454;28;20034;-82
2022/01/22 07:38:13;;;;;;;17.60;15.70;;;-2.00;99.90;;;;;;4999482;28;20489;-82
2022/01/22 07:41:37;;;;;;;20.45;15.27;;;-2.00;99.90;;;;;;4997724;28;20026;-82
2022/01/22 07:44:04;;;;;;;17.63;14.02;;;-1.90;99.90;;;;;;4999624;28;20053;-83
2022/01/22 07:46:30;;;;;;;23.88;15.25;;;-1.90;99.90;;;;;;4999134;28;20505;-85
2022/01/22 07:49:52;;;;;;;25.88;15.13;;;-1.90;99.90;;;;;;4970365;28;20031;-84
2022/01/22 07:52:18;;;;;;;20.77;15.30;;;-1.80;99.90;;;;;;5009797;28;20026;-84
2022/01/22 07:54:44;;;;;;;20.17;16.48;;;-1.80;99.90;;;;;;4995989;28;20062;-84
2022/01/22 07:57:10;;;;;;;26.25;16.92;;;-1.80;99.90;;;;;;4992522;28;20091;-84
2022/01/22 07:59:36;;;;;;;26.83;16.73;;;-1.70;99.90;;;;;;4996766;28;20069;-85
2022/01/22 08:02:30;;;;;;;26.17;16.55;;;-1.70;99.90;;;;;;4990165;28;20015;-83
2022/01/22 08:04:55;;;;;;;24.80;16.95;;;-1.70;99.90;;;;;;4997387;28;20045;-84
2022/01/22 08:07:21;;;;;;;24.88;17.95;;;-1.60;99.90;;;;;;4995360;28;20030;-84
2022/01/22 08:09:48;;;;;;;25.50;16.77;;;-1.60;99.90;;;;;;4974928;28;20556;-84
2022/01/22 08:12:14;;;;;;;24.20;17.58;;;-1.50;99.90;;;;;;4993066;28;20031;-84
2022/01/22 08:14:40;;;;;;;25.48;16.23;;;-1.40;99.90;;;;;;4996717;28;20039;-85
2022/01/22 08:17:06;;;;;;;39.80;22.13;;;-1.30;99.90;;;;;;4993249;28;20069;-83
2022/01/22 08:19:31;;;;;;;103.97;45.92;;;-1.30;99.90;;;;;;4995145;28;20065;-83
2022/01/22 08:21:57;;;;;;;76.18;41.00;;;-1.20;99.90;;;;;;5001014;28;20030;-82
2022/01/22 08:24:26;;;;;;;50.53;30.77;;;-1.10;99.90;;;;;;4995359;28;20033;-82
2022/01/22 08:27:09;;;;;;;538.00;241.95;;;-1.10;99.90;;;;;;5009155;28;20043;-82
2022/01/22 08:29:35;;;;;;;743.10;339.02;;;-1.00;99.90;;;;;;4982868;28;20132;-82
2022/01/22 08:32:10;;;;;;;416.75;155.45;;;-1.00;99.90;;;;;;4977113;28;20034;-83
2022/01/22 08:37:22;;;;;;;218.50;113.63;;;-0.90;99.90;;;;;;4983220;28;20068;-82
2022/01/22 08:39:48;;;;;;;120.35;63.08;;;-0.80;99.90;;;;;;4975041;28;20018;-82
2022/01/22 08:42:15;;;;;;;64.63;46.83;;;-0.70;99.90;;;;;;4973378;28;20026;-83
2022/01/22 08:44:41;;;;;;;56.63;36.97;;;-0.70;99.90;;;;;;4979376;28;20037;-82
2022/01/22 08:47:07;;;;;;;47.78;26.73;;;-0.70;99.90;;;;;;4979064;28;20162;-82
2022/01/22 08:49:33;;;;;;;50.72;31.58;;;-0.60;99.90;;;;;;4976094;28;20054;-82
2022/01/22 08:52:00;;;;;;;68.35;52.50;;;-0.60;99.90;;;;;;4976468;28;20618;-82
2022/01/22 08:54:26;;;;;;;69.00;56.03;;;-0.50;99.90;;;;;;4969575;28;20474;-80
2022/01/22 08:56:52;;;;;;;68.00;47.72;;;-0.40;99.90;;;;;;4976731;28;20085;-82
2022/01/22 08:59:18;;;;;;;51.70;35.05;;;-0.40;99.90;;;;;;4974213;28;20038;-82
2022/01/22 09:01:45;;;;;;;52.10;36.08;;;-0.30;99.90;;;;;;4980883;28;20042;-83
2022/01/22 09:04:12;;;;;;;43.05;27.75;;;-0.30;99.90;;;;;;4977279;28;20078;-83
2022/01/22 09:06:38;;;;;;;35.50;26.48;;;-0.20;99.90;;;;;;4987691;28;20109;-83
2022/01/22 09:09:12;;;;;;;40.95;24.80;;;-0.10;99.90;;;;;;4978435;28;20069;-83
2022/01/22 09:11:40;;;;;;;27.75;22.17;;;-0.10;99.90;;;;;;4978415;28;20392;-83
2022/01/22 09:14:10;;;;;;;29.88;22.70;;;-0.10;99.90;;;;;;4976935;28;20039;-83
2022/01/22 09:16:37;;;;;;;34.33;22.48;;;0.00;99.90;;;;;;4977132;28;20023;-84
2022/01/22 09:19:10;;;;;;;37.75;26.95;;;0.10;99.90;;;;;;4980761;28;20030;-83
2022/01/22 09:21:43;;;;;;;30.83;22.27;;;0.10;99.90;;;;;;4983658;28;20038;-83
2022/01/22 09:24:12;;;;;;;30.02;24.05;;;0.20;99.90;;;;;;4983009;28;20029;-83
2022/01/22 09:26:38;;;;;;;30.80;20.98;;;0.30;99.90;;;;;;4999504;28;20030;-83
2022/01/22 09:29:05;;;;;;;31.83;21.10;;;0.40;99.90;;;;;;4985334;28;20117;-83
2022/01/22 09:31:32;;;;;;;27.42;20.15;;;0.50;99.90;;;;;;4997793;28;20084;-84
2022/01/22 09:34:00;;;;;;;34.30;20.67;;;0.60;99.90;;;;;;5004135;28;20029;-83
2022/01/22 09:36:27;;;;;;;28.02;17.73;;;0.70;99.90;;;;;;4989030;28;20058;-84
2022/01/22 09:38:56;;;;;;;190.25;80.95;;;0.70;99.90;;;;;;4998255;28;20622;-82
2022/01/22 09:41:24;;;;;;;329.15;115.13;;;0.90;99.90;;;;;;4997280;28;20027;-82
2022/01/22 09:43:52;;;;;;;184.95;65.65;;;0.90;99.90;;;;;;4986885;28;20541;-80
2022/01/22 09:46:20;;;;;;;273.98;94.55;;;1.00;99.90;;;;;;4987264;28;20031;-80
2022/01/22 09:48:49;;;;;;;27.27;17.50;;;1.00;99.90;;;;;;4994737;28;20022;-83
2022/01/22 09:51:15;;;;;;;21.42;14.75;;;1.10;99.90;;;;;;4980381;28;20022;-83
2022/01/22 09:53:44;;;;;;;29.13;18.67;;;1.30;99.90;;;;;;4986286;28;20142;-83
2022/01/22 09:56:11;;;;;;;62.03;45.33;;;1.40;99.90;;;;;;4979645;28;20490;-83
2022/01/22 09:58:37;;;;;;;50.95;34.58;;;1.40;99.90;;;;;;4996943;28;20022;-83
2022/01/22 10:01:25;;;;;;;26.70;19.33;;;1.50;99.90;;;;;;5016607;28;20146;-83
2022/01/22 10:04:03;;;;;;;22.50;16.20;;;1.60;99.90;;;;;;4983717;28;20022;-83
2022/01/22 10:06:46;;;;;;;24.88;15.43;;;1.70;99.90;;;;;;4995440;28;20022;-83
2022/01/22 10:09:24;;;;;;;19.67;14.27;;;1.70;99.90;;;;;;4983320;28;20030;-83
2022/01/22 10:12:10;;;;;;;29.65;16.08;;;1.80;99.90;;;;;;5001073;28;20018;-83
2022/01/22 10:15:03;;;;;;;22.40;14.45;;;1.90;99.90;;;;;;4983737;28;20030;-79
2022/01/22 10:17:43;;;;;;;19.50;13.52;;;2.00;99.90;;;;;;4983756;28;20029;-82
2022/01/22 10:20:21;;;;;;;21.10;15.52;;;2.10;99.90;;;;;;5005608;28;20022;-82
2022/01/22 10:22:48;;;;;;;20.55;14.70;;;2.20;99.90;;;;;;4977457;28;20049;-82
2022/01/22 10:25:29;;;;;;;21.13;15.77;;;2.20;99.90;;;;;;5020211;28;20450;-82
2022/01/22 10:27:55;;;;;;;;;;;2.30;99.90;;;;;;5020669;28;20057;-82
2022/01/22 10:30:21;;;;;;;20.60;13.40;;;2.40;99.90;;;;;;4986709;28;19932;-83
2022/01/22 10:33:00;;;;;;;20.55;12.63;;;2.50;99.90;;;;;;4995923;28;20033;-83
2022/01/22 10:35:28;;;;;;;17.02;12.23;;;2.60;99.90;;;;;;5003254;28;20026;-82
2022/01/22 10:38:01;;;;;;;25.48;13.20;;;2.70;99.90;;;;;;5000758;28;20049;-84
2022/01/22 10:40:37;;;;;;;24.67;11.18;;;2.60;99.90;;;;;;4983906;28;20019;-81
2022/01/22 10:48:56;;;;;;;11.88;10.52;;;2.80;99.90;;;;;;4998328;28;20521;-82
2022/01/22 10:51:28;;;;;;;22.48;9.55;;;2.90;99.90;;;;;;5015339;28;20025;-83
2022/01/22 10:54:03;;;;;;;11.05;7.50;;;3.00;99.90;;;;;;5001363;28;20084;-82
2022/01/22 10:56:31;;;;;;;16.48;8.57;;;3.10;99.90;;;;;;5016367;28;20026;-77
2022/01/22 10:59:02;;;;;;;11.63;7.45;;;3.10;99.90;;;;;;4992988;28;20058;-74
2022/01/22 11:01:46;;;;;;;13.65;8.73;;;3.20;99.90;;;;;;5001843;28;20027;-77
2022/01/22 11:04:18;;;;;;;12.88;8.98;;;3.20;99.90;;;;;;4982434;28;20054;-76
2022/01/22 11:07:05;;;;;;;11.75;8.25;;;3.30;99.90;;;;;;4982553;28;20029;-76
2022/01/22 11:09:32;;;;;;;11.85;7.63;;;3.30;99.90;;;;;;4999449;28;20022;-77
2022/01/22 11:11:59;;;;;;;10.05;7.85;;;3.30;99.90;;;;;;4999668;28;20019;-76
2022/01/22 11:14:32;;;;;;;13.32;7.03;;;3.30;99.90;;;;;;4998531;28;20034;-81
2022/01/22 11:17:15;;;;;;;;;;;;;;;;;;;;;
2022/01/22 11:19:45;;;;;;;15.25;8.52;;;3.40;99.90;;;;;;5010940;28;20050;-81
2022/01/22 11:22:14;;;;;;;9.30;6.53;;;3.50;99.90;;;;;;5000929;28;20478;-82
2022/01/22 11:24:57;;;;;;;8.38;6.60;;;3.50;99.90;;;;;;5000063;28;20026;-81
2022/01/22 11:27:33;;;;;;;;;;;;;;;;;;;;;
2022/01/22 11:30:28;;;;;;;10.93;7.78;;;3.60;99.90;;;;;;4996749;28;20118;-81
2022/01/22 11:33:01;;;;;;;12.10;8.60;;;3.70;99.90;;;;;;4980279;28;20129;-79
2022/01/22 11:35:42;;;;;;;10.73;8.30;;;3.70;99.90;;;;;;4984896;28;20030;-81
2022/01/22 11:38:10;;;;;;;19.75;9.02;;;3.80;99.90;;;;;;4999916;28;20065;-83
2022/01/22 11:40:39;;;;;;;17.90;9.63;;;3.90;99.90;;;;;;4982197;28;20072;-82
2022/01/22 11:43:09;;;;;;;12.18;8.55;;;4.00;99.90;;;;;;4999946;28;20027;-80
2022/01/22 11:45:44;;;;;;;13.40;9.88;;;4.10;99.90;;;;;;4999710;28;20026;-82
2022/01/22 11:48:13;;;;;;;13.27;8.48;;;4.10;99.90;;;;;;4982142;28;20494;-82
2022/01/22 11:50:44;;;;;;;19.98;9.18;;;4.10;99.90;;;;;;4982137;28;20034;-82
2022/01/22 11:53:32;;;;;;;13.68;8.50;;;4.20;99.90;;;;;;4999260;28;20038;-83
2022/01/22 11:56:19;;;;;;;15.15;8.45;;;4.30;99.90;;;;;;4981772;28;20117;-81
2022/01/22 11:59:01;;;;;;;20.00;9.70;;;4.30;99.90;;;;;;4981527;28;20018;-82
2022/01/22 12:01:43;;;;;;;14.75;10.50;;;4.40;99.90;;;;;;4998585;28;20026;-82
2022/01/22 12:04:21;;;;;;;;;;;;;;;;;;;;;
2022/01/22 12:07:07;;;;;;;12.43;9.43;;;4.40;99.90;;;;;;4999593;28;20109;-82
2022/01/22 12:15:30;;;;;;;10.30;8.00;;;4.60;99.90;;;;;;4999128;28;20030;-83
2022/01/22 12:18:11;;;;;;;16.90;10.40;;;4.60;99.90;;;;;;4981984;28;20141;-82
2022/01/22 12:23:32;;;;;;;14.13;10.07;;;4.70;99.90;;;;;;5000911;28;20082;-82
2022/01/22 12:26:03;;;;;;;17.45;10.55;;;4.70;99.90;;;;;;4983434;28;20045;-84
2022/01/22 12:28:44;;;;;;;14.45;10.18;;;4.70;99.90;;;;;;4984800;28;20125;-83
2022/01/22 12:31:16;;;;;;;15.95;9.93;;;4.80;99.90;;;;;;5009332;28;20021;-82
2022/01/22 12:33:44;;;;;;;18.73;8.32;;;4.90;99.90;;;;;;5011958;28;20058;-83
2022/01/22 12:36:23;;;;;;;15.35;9.80;;;4.90;99.90;;;;;;5013930;28;20026;-82
2022/01/22 12:39:28;;;;;;;14.98;9.88;;;5.00;99.90;;;;;;4993696;28;20050;-83
2022/01/22 12:41:57;;;;;;;17.05;9.63;;;5.10;99.90;;;;;;5006356;28;20049;-83
2022/01/22 12:44:35;;;;;;;11.40;8.40;;;5.10;99.90;;;;;;5017434;28;20022;-82
2022/01/22 12:47:10;;;;;;;13.88;7.60;;;5.20;99.90;;;;;;5012730;28;20050;-84
2022/01/22 12:49:47;;;;;;;;;;;;;;;;;;;;;
2022/01/22 12:52:18;;;;;;;11.95;9.77;;;5.20;99.90;;;;;;5011702;28;20112;-84
2022/01/22 12:54:48;;;;;;;243.80;79.18;;;5.30;99.90;;;;;;5016646;28;20026;-84
2022/01/22 12:57:17;;;;;;;12.05;8.60;;;5.30;99.90;;;;;;4995092;28;20520;-84
2022/01/22 13:00:07;;;;;;;11.25;7.25;;;5.30;99.90;;;;;;4996530;28;20050;-83
2022/01/22 13:02:43;;;;;;;25.77;10.82;;;5.40;99.90;;;;;;4996926;28;20026;-82
2022/01/22 13:05:12;;;;;;;12.35;7.47;;;5.50;99.90;;;;;;4996533;28;20033;-83
2022/01/22 13:07:46;;;;;;;23.55;8.82;;;5.50;99.90;;;;;;4996848;28;20030;-83
2022/01/22 13:10:26;;;;;;;12.57;7.63;;;5.60;99.90;;;;;;4997727;28;20359;-81
2022/01/22 13:12:57;;;;;;;9.50;7.13;;;5.70;99.90;;;;;;4997798;28;20505;-83
2022/01/22 13:15:30;;;;;;;87.75;30.02;;;5.70;99.90;;;;;;4997579;28;20097;-84
2022/01/22 13:18:07;;;;;;;;;;;;;;;;;;;;;
2022/01/22 13:20:39;;;;;;;13.75;8.40;;;5.80;99.90;;;;;;5004082;28;20030;-87
2022/01/22 13:23:22;;;;;;;14.45;7.68;;;5.80;99.90;;;;;;4980943;28;20117;-85
2022/01/22 13:25:55;;;;;;;16.58;8.35;;;5.80;99.90;;;;;;4998908;28;20022;-85
2022/01/22 13:28:41;;;;;;;16.40;7.97;;;5.90;99.90;;;;;;5017466;28;20445;-85
2022/01/22 13:31:36;;;;;;;11.52;7.18;;;5.80;99.90;;;;;;4955610;28;20026;-86
2022/01/22 13:34:15;;;;;;;12.00;6.68;;;5.90;99.90;;;;;;5001158;28;20027;-86
2022/01/22 13:37:15;;;;;;;13.90;7.88;;;5.90;99.90;;;;;;5002121;28;20026;-86
2022/01/22 13:48:33;;;;;;;14.07;6.22;;;6.00;99.90;;;;;;5004696;28;20029;-84
2022/01/22 13:51:13;;;;;;;;;;;;;;;;;;;;;
2022/01/22 13:53:49;;;;;;;15.32;6.72;;;6.00;99.90;;;;;;4993633;28;20471;-86
2022/01/22 13:56:22;;;;;;;14.43;7.25;;;6.00;99.90;;;;;;4987589;28;20415;-86
2022/01/22 13:58:53;;;;;;;10.70;6.45;;;6.00;99.90;;;;;;4986416;28;20474;-86
2022/01/22 14:01:48;;;;;;;9.60;6.00;;;6.00;99.90;;;;;;5001268;28;20468;-86
2022/01/22 14:04:18;;;;;;;14.85;6.50;;;6.00;99.90;;;;;;4985742;28;20094;-83
2022/01/22 14:06:47;;;;;;;7.78;5.38;;;6.00;99.90;;;;;;4996257;28;20049;-87
2022/01/22 14:09:18;;;;;;;12.10;6.07;;;6.10;99.90;;;;;;4985303;28;20030;-86
2022/01/22 14:12:14;;;;;;;10.93;6.90;;;6.10;99.90;;;;;;4985333;28;20037;-85
2022/01/22 14:15:07;;;;;;;8.18;5.82;;;6.10;99.90;;;;;;5002010;28;20557;-85
2022/01/22 14:18:09;;;;;;;7.60;5.88;;;6.10;99.90;;;;;;4986627;28;20489;-85
2022/01/22 14:20:41;;;;;;;12.93;7.47;;;6.10;99.90;;;;;;5010317;28;20026;-86
2022/01/22 14:23:11;;;;;;;12.57;8.35;;;6.10;99.90;;;;;;5005055;28;20022;-84
2022/01/22 14:26:28;;;;;;;12.02;7.07;;;6.10;99.90;;;;;;4986509;28;20042;-84
2022/01/22 14:29:07;;;;;;;10.38;5.90;;;6.10;99.90;;;;;;4967022;28;20042;-85
2022/01/22 14:31:57;;;;;;;10.45;6.32;;;6.20;99.90;;;;;;4967637;28;20031;-85
2022/01/22 14:34:33;;;;;;;19.53;6.57;;;6.20;99.90;;;;;;4973799;28;20483;-87
2022/01/22 14:37:07;;;;;;;13.85;6.82;;;6.10;99.90;;;;;;4962084;29;20387;-85
2022/01/22 14:45:33;;;;;;;12.07;7.55;;;6.10;99.90;;;;;;4980696;28;20184;-85
2022/01/22 14:48:07;;;;;;;7.25;6.13;;;6.00;99.90;;;;;;4963652;28;20403;-85
2022/01/22 14:50:36;;;;;;;13.23;6.72;;;6.00;99.90;;;;;;4981548;28;20106;-85
2022/01/22 14:53:06;;;;;;;10.13;7.10;;;5.90;99.90;;;;;;4964082;28;20026;-85
2022/01/22 14:55:35;;;;;;;10.38;7.03;;;6.00;99.90;;;;;;4981225;28;20023;-84
2022/01/22 14:58:03;;;;;;;10.05;7.63;;;6.00;99.90;;;;;;4963641;28;20027;-84
2022/01/22 15:00:36;;;;;;;12.40;7.90;;;6.00;99.90;;;;;;4981201;28;20414;-84
2022/01/22 15:03:13;;;;;;;;;;;;;;;;;;;;;
2022/01/22 15:05:46;;;;;;;14.40;7.90;;;5.90;99.90;;;;;;4981012;28;20042;-85
2022/01/22 15:08:15;;;;;;;11.43;7.18;;;5.90;99.90;;;;;;4960359;29;20402;-85